sensor_id;sensor_type;location;lat;lon;timestamp;P1;durP1;ratioP1;P2;durP2;ratioP2
22675;SDS011;12521;43.310;21.876;2023-05-02T00:04:15;15.0;;;14.0;;
22675;SDS011;12521;43.310;21.876;2023-05-02T00:08:52;15.0;;;14.0;;
22675;SDS011;12521;43.310;21.876;2023-05-02T00:13:29;18.0;;;15.0;;
22675;SDS011;12521;43.310;21.876;2023-05-02T00:18:05;18.0;;;15.0;;
22675;SDS011;12521;43.310;21.876;2023-05-02T00:22:42;18.0;;;15.0;;
22675;SDS011;12521;43.310;21.876;2023-05-02T00:27:19;20.0;;;16.0;;
22675;SDS011;12521;43.310;21.876;2023-05-02T00:31:55;20.0;;;16.0;;
22675;SDS011;12521;43.310;21.876;2023-05-02T00:36:32;20.0;;;17.0;;
22675;SDS011;12521;43.310;21.876;2023-05-02T00:41:09;20.0;;;17.0;;
22675;SDS011;12521;43.310;21.876;2023-05-02T00:45:46;20.0;;;18.0;;
22675;SDS011;12521;43.310;21.876;2023-05-02T00:50:25;20.0;;;18.0;;
22675;SDS011;12521;43.310;21.876;2023-05-02T00:55:08;16.0;;;15.0;;
22675;SDS011;12521;43.310;21.876;2023-05-02T00:59:45;16.0;;;15.0;;
22675;SDS011;12521;43.310;21.876;2023-05-02T01:04:37;13.0;;;12.0;;
22675;SDS011;12521;43.310;21.876;2023-05-02T01:10:09;13.0;;;12.0;;
22675;SDS011;12521;43.310;21.876;2023-05-02T01:15:41;14.0;;;12.0;;
22675;SDS011;12521;43.310;21.876;2023-05-02T01:20:37;14.0;;;12.0;;
22675;SDS011;12521;43.310;21.876;2023-05-02T01:25:47;14.0;;;13.0;;
22675;SDS011;12521;43.310;21.876;2023-05-02T01:31:11;14.0;;;13.0;;
22675;SDS011;12521;43.310;21.876;2023-05-02T01:35:54;14.0;;;13.0;;
22675;SDS011;12521;43.310;21.876;2023-05-02T01:40:38;14.0;;;13.0;;
22675;SDS011;12521;43.310;21.876;2023-05-02T01:45:26;14.0;;;13.0;;
22675;SDS011;12521;43.310;21.876;2023-05-02T01:50:14;14.0;;;13.0;;
22675;SDS011;12521;43.310;21.876;2023-05-02T01:55:01;14.0;;;14.0;;
22675;SDS011;12521;43.310;21.876;2023-05-02T01:59:54;14.0;;;14.0;;
22675;SDS011;12521;43.310;21.876;2023-05-02T02:04:38;14.0;;;14.0;;
22675;SDS011;12521;43.310;21.876;2023-05-02T02:09:18;14.0;;;14.0;;
22675;SDS011;12521;43.310;21.876;2023-05-02T02:14:03;14.0;;;14.0;;
22675;SDS011;12521;43.310;21.876;2023-05-02T02:18:56;14.0;;;14.0;;
22675;SDS011;12521;43.310;21.876;2023-05-02T02:23:53;15.0;;;14.0;;
22675;SDS011;12521;43.310;21.876;2023-05-02T02:28:42;15.0;;;14.0;;
22675;SDS011;12521;43.310;21.876;2023-05-02T02:33:19;14.0;;;13.0;;
22675;SDS011;12521;43.310;21.876;2023-05-02T02:38:12;14.0;;;13.0;;
22675;SDS011;12521;43.310;21.876;2023-05-02T02:43:28;14.0;;;12.0;;
22675;SDS011;12521;43.310;21.876;2023-05-02T02:48:44;14.0;;;12.0;;
22675;SDS011;12521;43.310;21.876;2023-05-02T02:54:22;14.0;;;12.0;;
22675;SDS011;12521;43.310;21.876;2023-05-02T02:59:37;14.0;;;12.0;;
22675;SDS011;12521;43.310;21.876;2023-05-02T03:04:45;14.0;;;13.0;;
22675;SDS011;12521;43.310;21.876;2023-05-02T03:09:42;14.0;;;13.0;;
22675;SDS011;12521;43.310;21.876;2023-05-02T03:14:22;12.0;;;11.0;;
22675;SDS011;12521;43.310;21.876;2023-05-02T03:18:59;12.0;;;11.0;;
22675;SDS011;12521;43.310;21.876;2023-05-02T03:23:37;10.0;;;9.0;;
22675;SDS011;12521;43.310;21.876;2023-05-02T03:28:13;10.0;;;9.0;;
22675;SDS011;12521;43.310;21.876;2023-05-02T03:32:49;10.0;;;9.0;;
22675;SDS011;12521;43.310;21.876;2023-05-02T03:37:26;14.0;;;11.0;;
22675;SDS011;12521;43.310;21.876;2023-05-02T03:42:04;14.0;;;11.0;;
22675;SDS011;12521;43.310;21.876;2023-05-02T03:46:41;18.0;;;13.0;;
22675;SDS011;12521;43.310;21.876;2023-05-02T03:51:18;18.0;;;13.0;;
22675;SDS011;12521;43.310;21.876;2023-05-02T03:55:55;18.0;;;14.0;;
22675;SDS011;12521;43.310;21.876;2023-05-02T04:00:33;18.0;;;14.0;;
22675;SDS011;12521;43.310;21.876;2023-05-02T04:05:10;18.0;;;16.0;;
22675;SDS011;12521;43.310;21.876;2023-05-02T04:09:46;18.0;;;16.0;;
22675;SDS011;12521;43.310;21.876;2023-05-02T04:14:23;16.0;;;14.0;;
22675;SDS011;12521;43.310;21.876;2023-05-02T04:19:00;16.0;;;14.0;;
22675;SDS011;12521;43.310;21.876;2023-05-02T04:23:37;15.0;;;13.0;;
22675;SDS011;12521;43.310;21.876;2023-05-02T04:28:13;15.0;;;13.0;;
22675;SDS011;12521;43.310;21.876;2023-05-02T04:32:50;15.0;;;13.0;;
22675;SDS011;12521;43.310;21.876;2023-05-02T04:37:26;15.0;;;14.0;;
22675;SDS011;12521;43.310;21.876;2023-05-02T04:42:03;15.0;;;14.0;;
22675;SDS011;12521;43.310;21.876;2023-05-02T04:46:39;15.0;;;14.0;;
22675;SDS011;12521;43.310;21.876;2023-05-02T04:51:15;15.0;;;14.0;;
22675;SDS011;12521;43.310;21.876;2023-05-02T04:55:52;13.0;;;12.0;;
22675;SDS011;12521;43.310;21.876;2023-05-02T05:00:28;13.0;;;12.0;;
22675;SDS011;12521;43.310;21.876;2023-05-02T05:05:06;11.0;;;11.0;;
22675;SDS011;12521;43.310;21.876;2023-05-02T05:09:43;11.0;;;11.0;;
22675;SDS011;12521;43.310;21.876;2023-05-02T05:14:20;12.0;;;10.0;;
22675;SDS011;12521;43.310;21.876;2023-05-02T05:18:56;12.0;;;10.0;;
22675;SDS011;12521;43.310;21.876;2023-05-02T05:23:33;12.0;;;10.0;;
22675;SDS011;12521;43.310;21.876;2023-05-02T05:28:11;12.0;;;10.0;;
22675;SDS011;12521;43.310;21.876;2023-05-02T05:32:48;12.0;;;10.0;;
22675;SDS011;12521;43.310;21.876;2023-05-02T05:37:25;12.0;;;11.0;;
22675;SDS011;12521;43.310;21.876;2023-05-02T05:42:02;12.0;;;11.0;;
22675;SDS011;12521;43.310;21.876;2023-05-02T05:46:39;13.0;;;12.0;;
22675;SDS011;12521;43.310;21.876;2023-05-02T05:51:15;13.0;;;12.0;;
22675;SDS011;12521;43.310;21.876;2023-05-02T05:55:52;12.0;;;11.0;;
22675;SDS011;12521;43.310;21.876;2023-05-02T06:00:29;12.0;;;11.0;;
22675;SDS011;12521;43.310;21.876;2023-05-02T06:05:08;12.0;;;10.0;;
22675;SDS011;12521;43.310;21.876;2023-05-02T06:09:45;12.0;;;10.0;;
22675;SDS011;12521;43.310;21.876;2023-05-02T06:14:21;11.0;;;10.0;;
22675;SDS011;12521;43.310;21.876;2023-05-02T06:18:58;11.0;;;10.0;;
22675;SDS011;12521;43.310;21.876;2023-05-02T06:23:35;10.0;;;9.0;;
22675;SDS011;12521;43.310;21.876;2023-05-02T06:28:13;10.0;;;9.0;;
22675;SDS011;12521;43.310;21.876;2023-05-02T06:32:50;10.0;;;9.0;;
22675;SDS011;12521;43.310;21.876;2023-05-02T06:37:32;9.0;;;8.0;;
22675;SDS011;12521;43.310;21.876;2023-05-02T06:42:10;9.0;;;8.0;;
22675;SDS011;12521;43.310;21.876;2023-05-02T06:46:47;8.0;;;7.0;;
22675;SDS011;12521;43.310;21.876;2023-05-02T06:51:24;8.0;;;7.0;;
22675;SDS011;12521;43.310;21.876;2023-05-02T06:56:01;10.0;;;6.0;;
22675;SDS011;12521;43.310;21.876;2023-05-02T07:00:40;10.0;;;6.0;;
22675;SDS011;12521;43.310;21.876;2023-05-02T07:05:17;11.0;;;6.0;;
22675;SDS011;12521;43.310;21.876;2023-05-02T07:09:54;11.0;;;6.0;;
22675;SDS011;12521;43.310;21.876;2023-05-02T07:14:31;12.0;;;8.0;;
22675;SDS011;12521;43.310;21.876;2023-05-02T07:19:07;12.0;;;8.0;;
22675;SDS011;12521;43.310;21.876;2023-05-02T07:23:44;12.0;;;9.0;;
22675;SDS011;12521;43.310;21.876;2023-05-02T07:28:20;12.0;;;9.0;;
22675;SDS011;12521;43.310;21.876;2023-05-02T07:32:56;12.0;;;9.0;;
22675;SDS011;12521;43.310;21.876;2023-05-02T07:37:33;9.0;;;8.0;;
22675;SDS011;12521;43.310;21.876;2023-05-02T07:42:10;9.0;;;8.0;;
22675;SDS011;12521;43.310;21.876;2023-05-02T07:46:46;6.0;;;6.0;;
22675;SDS011;12521;43.310;21.876;2023-05-02T07:51:23;6.0;;;6.0;;
22675;SDS011;12521;43.310;21.876;2023-05-02T07:56:00;7.0;;;6.0;;
22675;SDS011;12521;43.310;21.876;2023-05-02T08:00:40;7.0;;;6.0;;
22675;SDS011;12521;43.310;21.876;2023-05-02T08:05:17;8.0;;;7.0;;
22675;SDS011;12521;43.310;21.876;2023-05-02T08:09:54;8.0;;;7.0;;
22675;SDS011;12521;43.310;21.876;2023-05-02T08:14:30;8.0;;;7.0;;
22675;SDS011;12521;43.310;21.876;2023-05-02T08:19:08;8.0;;;7.0;;
22675;SDS011;12521;43.310;21.876;2023-05-02T08:23:44;7.0;;;7.0;;
22675;SDS011;12521;43.310;21.876;2023-05-02T08:28:21;7.0;;;7.0;;
22675;SDS011;12521;43.310;21.876;2023-05-02T08:32:57;7.0;;;7.0;;
22675;SDS011;12521;43.310;21.876;2023-05-02T08:37:34;6.0;;;6.0;;
22675;SDS011;12521;43.310;21.876;2023-05-02T08:42:10;6.0;;;6.0;;
22675;SDS011;12521;43.310;21.876;2023-05-02T08:46:49;6.0;;;6.0;;
22675;SDS011;12521;43.310;21.876;2023-05-02T08:51:32;6.0;;;6.0;;
22675;SDS011;12521;43.310;21.876;2023-05-02T08:56:14;6.0;;;6.0;;
22675;SDS011;12521;43.310;21.876;2023-05-02T09:00:52;6.0;;;6.0;;
22675;SDS011;12521;43.310;21.876;2023-05-02T09:05:51;6.0;;;6.0;;
22675;SDS011;12521;43.310;21.876;2023-05-02T09:10:46;6.0;;;6.0;;
22675;SDS011;12521;43.310;21.876;2023-05-02T09:15:24;6.0;;;6.0;;
22675;SDS011;12521;43.310;21.876;2023-05-02T09:20:01;6.0;;;6.0;;
22675;SDS011;12521;43.310;21.876;2023-05-02T09:24:41;7.0;;;6.0;;
22675;SDS011;12521;43.310;21.876;2023-05-02T09:29:29;7.0;;;6.0;;
22675;SDS011;12521;43.310;21.876;2023-05-02T09:34:11;6.0;;;6.0;;
22675;SDS011;12521;43.310;21.876;2023-05-02T09:39:08;6.0;;;6.0;;
22675;SDS011;12521;43.310;21.876;2023-05-02T09:43:56;6.0;;;6.0;;
22675;SDS011;12521;43.310;21.876;2023-05-02T09:48:51;6.0;;;6.0;;
22675;SDS011;12521;43.310;21.876;2023-05-02T09:53:43;6.0;;;6.0;;
22675;SDS011;12521;43.310;21.876;2023-05-02T09:58:22;6.0;;;6.0;;
22675;SDS011;12521;43.310;21.876;2023-05-02T10:03:00;6.0;;;6.0;;
22675;SDS011;12521;43.310;21.876;2023-05-02T10:07:42;7.0;;;6.0;;
22675;SDS011;12521;43.310;21.876;2023-05-02T10:12:23;7.0;;;6.0;;
22675;SDS011;12521;43.310;21.876;2023-05-02T10:17:11;6.0;;;6.0;;
22675;SDS011;12521;43.310;21.876;2023-05-02T10:22:06;6.0;;;6.0;;
22675;SDS011;12521;43.310;21.876;2023-05-02T10:26:47;6.0;;;5.0;;
22675;SDS011;12521;43.310;21.876;2023-05-02T10:31:32;6.0;;;5.0;;
22675;SDS011;12521;43.310;21.876;2023-05-02T10:36:12;6.0;;;5.0;;
22675;SDS011;12521;43.310;21.876;2023-05-02T10:40:55;6.0;;;5.0;;
22675;SDS011;12521;43.310;21.876;2023-05-02T10:45:49;5.0;;;5.0;;
22675;SDS011;12521;43.310;21.876;2023-05-02T10:50:42;5.0;;;5.0;;
22675;SDS011;12521;43.310;21.876;2023-05-02T10:55:25;5.0;;;5.0;;
22675;SDS011;12521;43.310;21.876;2023-05-02T11:00:20;5.0;;;5.0;;
22675;SDS011;12521;43.310;21.876;2023-05-02T11:05:04;5.0;;;5.0;;
22675;SDS011;12521;43.310;21.876;2023-05-02T11:09:43;5.0;;;5.0;;
22675;SDS011;12521;43.310;21.876;2023-05-02T11:14:43;4.0;;;4.0;;
22675;SDS011;12521;43.310;21.876;2023-05-02T11:19:22;4.0;;;4.0;;
22675;SDS011;12521;43.310;21.876;2023-05-02T11:24:37;4.0;;;4.0;;
22675;SDS011;12521;43.310;21.876;2023-05-02T11:29:50;4.0;;;4.0;;
22675;SDS011;12521;43.310;21.876;2023-05-02T11:34:41;5.0;;;4.0;;
22675;SDS011;12521;43.310;21.876;2023-05-02T11:39:20;5.0;;;4.0;;
22675;SDS011;12521;43.310;21.876;2023-05-02T11:44:02;6.0;;;5.0;;
22675;SDS011;12521;43.310;21.876;2023-05-02T11:48:40;6.0;;;5.0;;
22675;SDS011;12521;43.310;21.876;2023-05-02T11:53:19;6.0;;;5.0;;
22675;SDS011;12521;43.310;21.876;2023-05-02T11:58:04;6.0;;;6.0;;
22675;SDS011;12521;43.310;21.876;2023-05-02T12:02:56;6.0;;;6.0;;
22675;SDS011;12521;43.310;21.876;2023-05-02T12:07:35;7.0;;;6.0;;
22675;SDS011;12521;43.310;21.876;2023-05-02T12:12:19;7.0;;;6.0;;
22675;SDS011;12521;43.310;21.876;2023-05-02T12:16:58;6.0;;;5.0;;
22675;SDS011;12521;43.310;21.876;2023-05-02T12:21:39;6.0;;;5.0;;
22675;SDS011;12521;43.310;21.876;2023-05-02T12:26:17;5.0;;;4.0;;
22675;SDS011;12521;43.310;21.876;2023-05-02T12:31:09;5.0;;;4.0;;
22675;SDS011;12521;43.310;21.876;2023-05-02T12:35:46;6.0;;;4.0;;
22675;SDS011;12521;43.310;21.876;2023-05-02T12:40:23;6.0;;;4.0;;
22675;SDS011;12521;43.310;21.876;2023-05-02T12:45:00;6.0;;;5.0;;
22675;SDS011;12521;43.310;21.876;2023-05-02T12:49:53;6.0;;;5.0;;
22675;SDS011;12521;43.310;21.876;2023-05-02T12:54:33;6.0;;;4.0;;
22675;SDS011;12521;43.310;21.876;2023-05-02T12:59:25;6.0;;;4.0;;
22675;SDS011;12521;43.310;21.876;2023-05-02T13:04:07;7.0;;;4.0;;
22675;SDS011;12521;43.310;21.876;2023-05-02T13:08:43;7.0;;;4.0;;
22675;SDS011;12521;43.310;21.876;2023-05-02T13:13:20;7.0;;;4.0;;
22675;SDS011;12521;43.310;21.876;2023-05-02T13:17:56;6.0;;;4.0;;
22675;SDS011;12521;43.310;21.876;2023-05-02T13:22:33;6.0;;;4.0;;
22675;SDS011;12521;43.310;21.876;2023-05-02T13:27:11;5.0;;;4.0;;
22675;SDS011;12521;43.310;21.876;2023-05-02T13:31:47;5.0;;;4.0;;
22675;SDS011;12521;43.310;21.876;2023-05-02T13:36:24;6.0;;;4.0;;
22675;SDS011;12521;43.310;21.876;2023-05-02T13:41:01;6.0;;;4.0;;
22675;SDS011;12521;43.310;21.876;2023-05-02T13:45:37;6.0;;;5.0;;
22675;SDS011;12521;43.310;21.876;2023-05-02T13:50:14;6.0;;;5.0;;
22675;SDS011;12521;43.310;21.876;2023-05-02T13:54:51;6.0;;;4.0;;
22675;SDS011;12521;43.310;21.876;2023-05-02T13:59:27;6.0;;;4.0;;
22675;SDS011;12521;43.310;21.876;2023-05-02T14:04:04;5.0;;;4.0;;
22675;SDS011;12521;43.310;21.876;2023-05-02T14:08:40;5.0;;;4.0;;
22675;SDS011;12521;43.310;21.876;2023-05-02T14:13:17;5.0;;;4.0;;
22675;SDS011;12521;43.310;21.876;2023-05-02T14:17:54;5.0;;;4.0;;
22675;SDS011;12521;43.310;21.876;2023-05-02T14:22:30;5.0;;;4.0;;
22675;SDS011;12521;43.310;21.876;2023-05-02T14:27:07;5.0;;;5.0;;
22675;SDS011;12521;43.310;21.876;2023-05-02T14:31:44;5.0;;;5.0;;
22675;SDS011;12521;43.310;21.876;2023-05-02T14:36:21;5.0;;;4.0;;
22675;SDS011;12521;43.310;21.876;2023-05-02T14:40:59;5.0;;;4.0;;
22675;SDS011;12521;43.310;21.876;2023-05-02T14:45:36;5.0;;;4.0;;
22675;SDS011;12521;43.310;21.876;2023-05-02T14:50:13;5.0;;;4.0;;
22675;SDS011;12521;43.310;21.876;2023-05-02T14:54:50;6.0;;;4.0;;
22675;SDS011;12521;43.310;21.876;2023-05-02T14:59:28;6.0;;;4.0;;
22675;SDS011;12521;43.310;21.876;2023-05-02T15:04:06;6.0;;;5.0;;
22675;SDS011;12521;43.310;21.876;2023-05-02T15:08:43;6.0;;;5.0;;
22675;SDS011;12521;43.310;21.876;2023-05-02T15:13:19;6.0;;;5.0;;
22675;SDS011;12521;43.310;21.876;2023-05-02T15:17:56;8.0;;;6.0;;
22675;SDS011;12521;43.310;21.876;2023-05-02T15:22:33;8.0;;;6.0;;
22675;SDS011;12521;43.310;21.876;2023-05-02T15:27:09;10.0;;;8.0;;
22675;SDS011;12521;43.310;21.876;2023-05-02T15:31:46;10.0;;;8.0;;
22675;SDS011;12521;43.310;21.876;2023-05-02T15:36:26;8.0;;;7.0;;
22675;SDS011;12521;43.310;21.876;2023-05-02T15:41:05;8.0;;;7.0;;
22675;SDS011;12521;43.310;21.876;2023-05-02T15:45:42;7.0;;;6.0;;
22675;SDS011;12521;43.310;21.876;2023-05-02T15:50:19;7.0;;;6.0;;
22675;SDS011;12521;43.310;21.876;2023-05-02T15:54:55;6.0;;;6.0;;
22675;SDS011;12521;43.310;21.876;2023-05-02T15:59:32;6.0;;;6.0;;
22675;SDS011;12521;43.310;21.876;2023-05-02T16:04:09;6.0;;;6.0;;
22675;SDS011;12521;43.310;21.876;2023-05-02T16:08:46;6.0;;;6.0;;
22675;SDS011;12521;43.310;21.876;2023-05-02T16:13:23;6.0;;;6.0;;
22675;SDS011;12521;43.310;21.876;2023-05-02T16:17:59;6.0;;;6.0;;
22675;SDS011;12521;43.310;21.876;2023-05-02T16:22:36;6.0;;;6.0;;
22675;SDS011;12521;43.310;21.876;2023-05-02T16:27:14;6.0;;;5.0;;
22675;SDS011;12521;43.310;21.876;2023-05-02T16:31:50;6.0;;;5.0;;
22675;SDS011;12521;43.310;21.876;2023-05-02T16:36:27;6.0;;;5.0;;
22675;SDS011;12521;43.310;21.876;2023-05-02T16:41:04;6.0;;;5.0;;
22675;SDS011;12521;43.310;21.876;2023-05-02T16:54:55;7.0;;;7.0;;
22675;SDS011;12521;43.310;21.876;2023-05-02T16:59:31;7.0;;;7.0;;
22675;SDS011;12521;43.310;21.876;2023-05-02T17:04:09;7.0;;;7.0;;
22675;SDS011;12521;43.310;21.876;2023-05-02T17:08:46;7.0;;;7.0;;
22675;SDS011;12521;43.310;21.876;2023-05-02T17:13:23;7.0;;;7.0;;
22675;SDS011;12521;43.310;21.876;2023-05-02T17:18:00;10.0;;;8.0;;
22675;SDS011;12521;43.310;21.876;2023-05-02T17:22:39;10.0;;;8.0;;
22675;SDS011;12521;43.310;21.876;2023-05-02T17:27:16;13.0;;;10.0;;
22675;SDS011;12521;43.310;21.876;2023-05-02T17:31:53;13.0;;;10.0;;
22675;SDS011;12521;43.310;21.876;2023-05-02T17:36:30;14.0;;;10.0;;
22675;SDS011;12521;43.310;21.876;2023-05-02T17:41:06;14.0;;;10.0;;
22675;SDS011;12521;43.310;21.876;2023-05-02T17:45:44;14.0;;;11.0;;
22675;SDS011;12521;43.310;21.876;2023-05-02T17:50:20;14.0;;;11.0;;
22675;SDS011;12521;43.310;21.876;2023-05-02T17:54:57;12.0;;;10.0;;
22675;SDS011;12521;43.310;21.876;2023-05-02T17:59:39;12.0;;;10.0;;
22675;SDS011;12521;43.310;21.876;2023-05-02T18:04:15;11.0;;;9.0;;
22675;SDS011;12521;43.310;21.876;2023-05-02T18:08:52;11.0;;;9.0;;
22675;SDS011;12521;43.310;21.876;2023-05-02T18:13:28;11.0;;;9.0;;
22675;SDS011;12521;43.310;21.876;2023-05-02T18:18:05;13.0;;;10.0;;
22675;SDS011;12521;43.310;21.876;2023-05-02T18:22:41;13.0;;;10.0;;
22675;SDS011;12521;43.310;21.876;2023-05-02T18:27:17;15.0;;;11.0;;
22675;SDS011;12521;43.310;21.876;2023-05-02T18:31:54;15.0;;;11.0;;
22675;SDS011;12521;43.310;21.876;2023-05-02T18:36:30;15.0;;;11.0;;
22675;SDS011;12521;43.310;21.876;2023-05-02T18:41:07;15.0;;;11.0;;
22675;SDS011;12521;43.310;21.876;2023-05-02T18:45:43;15.0;;;11.0;;
22675;SDS011;12521;43.310;21.876;2023-05-02T18:50:20;15.0;;;11.0;;
22675;SDS011;12521;43.310;21.876;2023-05-02T18:54:57;13.0;;;10.0;;
22675;SDS011;12521;43.310;21.876;2023-05-02T18:59:33;13.0;;;10.0;;
22675;SDS011;12521;43.310;21.876;2023-05-02T19:04:10;11.0;;;10.0;;
22675;SDS011;12521;43.310;21.876;2023-05-02T19:08:48;11.0;;;10.0;;
22675;SDS011;12521;43.310;21.876;2023-05-02T19:13:25;11.0;;;10.0;;
22675;SDS011;12521;43.310;21.876;2023-05-02T19:18:02;12.0;;;11.0;;
22675;SDS011;12521;43.310;21.876;2023-05-02T19:22:38;12.0;;;11.0;;
22675;SDS011;12521;43.310;21.876;2023-05-02T19:27:15;13.0;;;12.0;;
22675;SDS011;12521;43.310;21.876;2023-05-02T19:31:52;13.0;;;12.0;;
22675;SDS011;12521;43.310;21.876;2023-05-02T19:36:28;17.0;;;14.0;;
22675;SDS011;12521;43.310;21.876;2023-05-02T19:41:07;17.0;;;14.0;;
22675;SDS011;12521;43.310;21.876;2023-05-02T19:45:44;21.0;;;16.0;;
22675;SDS011;12521;43.310;21.876;2023-05-02T19:50:21;21.0;;;16.0;;
22675;SDS011;12521;43.310;21.876;2023-05-02T19:54:57;24.0;;;18.0;;
22675;SDS011;12521;43.310;21.876;2023-05-02T19:59:34;24.0;;;18.0;;
22675;SDS011;12521;43.310;21.876;2023-05-02T20:04:11;27.0;;;21.0;;
22675;SDS011;12521;43.310;21.876;2023-05-02T20:08:49;27.0;;;21.0;;
22675;SDS011;12521;43.310;21.876;2023-05-02T20:13:26;27.0;;;21.0;;
22675;SDS011;12521;43.310;21.876;2023-05-02T20:18:03;20.0;;;16.0;;
22675;SDS011;12521;43.310;21.876;2023-05-02T20:22:40;20.0;;;16.0;;
22675;SDS011;12521;43.310;21.876;2023-05-02T20:27:17;14.0;;;11.0;;
22675;SDS011;12521;43.310;21.876;2023-05-02T20:31:54;14.0;;;11.0;;
22675;SDS011;12521;43.310;21.876;2023-05-02T20:36:30;10.0;;;9.0;;
22675;SDS011;12521;43.310;21.876;2023-05-02T20:41:08;10.0;;;9.0;;
22675;SDS011;12521;43.310;21.876;2023-05-02T20:45:45;7.0;;;7.0;;
22675;SDS011;12521;43.310;21.876;2023-05-02T20:50:22;7.0;;;7.0;;
22675;SDS011;12521;43.310;21.876;2023-05-02T20:54:58;8.0;;;7.0;;
22675;SDS011;12521;43.310;21.876;2023-05-02T20:59:35;8.0;;;7.0;;
22675;SDS011;12521;43.310;21.876;2023-05-02T21:04:11;8.0;;;7.0;;
22675;SDS011;12521;43.310;21.876;2023-05-02T21:08:47;8.0;;;7.0;;
22675;SDS011;12521;43.310;21.876;2023-05-02T21:13:24;8.0;;;7.0;;
22675;SDS011;12521;43.310;21.876;2023-05-02T21:18:02;6.0;;;6.0;;
22675;SDS011;12521;43.310;21.876;2023-05-02T21:22:40;6.0;;;6.0;;
22675;SDS011;12521;43.310;21.876;2023-05-02T21:27:16;4.0;;;4.0;;
22675;SDS011;12521;43.310;21.876;2023-05-02T21:31:53;4.0;;;4.0;;
22675;SDS011;12521;43.310;21.876;2023-05-02T21:36:29;6.0;;;4.0;;
22675;SDS011;12521;43.310;21.876;2023-05-02T21:41:06;6.0;;;4.0;;
22675;SDS011;12521;43.310;21.876;2023-05-02T21:45:44;7.0;;;5.0;;
22675;SDS011;12521;43.310;21.876;2023-05-02T21:50:22;7.0;;;5.0;;
22675;SDS011;12521;43.310;21.876;2023-05-02T21:54:58;8.0;;;6.0;;
22675;SDS011;12521;43.310;21.876;2023-05-02T21:59:34;8.0;;;6.0;;
22675;SDS011;12521;43.310;21.876;2023-05-02T22:04:12;8.0;;;7.0;;
22675;SDS011;12521;43.310;21.876;2023-05-02T22:08:48;8.0;;;7.0;;
22675;SDS011;12521;43.310;21.876;2023-05-02T22:13:24;8.0;;;7.0;;
22675;SDS011;12521;43.310;21.876;2023-05-02T22:18:01;7.0;;;6.0;;
22675;SDS011;12521;43.310;21.876;2023-05-02T22:22:38;7.0;;;6.0;;
22675;SDS011;12521;43.310;21.876;2023-05-02T22:27:16;6.0;;;4.0;;
22675;SDS011;12521;43.310;21.876;2023-05-02T22:31:53;6.0;;;4.0;;
22675;SDS011;12521;43.310;21.876;2023-05-02T22:36:29;6.0;;;4.0;;
22675;SDS011;12521;43.310;21.876;2023-05-02T22:41:06;6.0;;;4.0;;
22675;SDS011;12521;43.310;21.876;2023-05-02T22:45:43;5.0;;;4.0;;
22675;SDS011;12521;43.310;21.876;2023-05-02T22:50:20;5.0;;;4.0;;
22675;SDS011;12521;43.310;21.876;2023-05-02T22:54:59;5.0;;;4.0;;
22675;SDS011;12521;43.310;21.876;2023-05-02T22:59:35;5.0;;;4.0;;
22675;SDS011;12521;43.310;21.876;2023-05-02T23:04:12;5.0;;;4.0;;
22675;SDS011;12521;43.310;21.876;2023-05-02T23:08:49;5.0;;;4.0;;
22675;SDS011;12521;43.310;21.876;2023-05-02T23:13:26;5.0;;;4.0;;
22675;SDS011;12521;43.310;21.876;2023-05-02T23:18:03;5.0;;;4.0;;
22675;SDS011;12521;43.310;21.876;2023-05-02T23:22:45;5.0;;;4.0;;
22675;SDS011;12521;43.310;21.876;2023-05-02T23:27:22;5.0;;;3.0;;
22675;SDS011;12521;43.310;21.876;2023-05-02T23:31:58;5.0;;;3.0;;
22675;SDS011;12521;43.310;21.876;2023-05-02T23:36:35;5.0;;;3.0;;
22675;SDS011;12521;43.310;21.876;2023-05-02T23:41:11;5.0;;;3.0;;
22675;SDS011;12521;43.310;21.876;2023-05-02T23:55:01;5.0;;;3.0;;
22675;SDS011;12521;43.310;21.876;2023-05-02T23:59:37;5.0;;;3.0;;
